Terminal Aerodrome Forecast
Issued by NWS Wakefield, VA

Home | Current Version | Previous Version | Text Only | Print | Product List | Glossary On
Versions: 1 2 3 4 5 6 7 8 9 10 11 12 13 14
000
FTUS41 KAKQ 280543 RRA
TAFECG
TAF
KECG 280543Z 2806/2906 15003KT P6SM SCT070
     FM281500 12007KT P6SM SCT050
     FM290000 15005KT P6SM SCT070=

USA.gov is the U.S. government's official web portal to all federal, state and local government web resources and services.